sensor_id;sensor_type;location;lat;lon;timestamp;pressure;altitude;pressure_sealevel;temperature;humidity
43480;BME280;29067;35.492;-97.520;2023-01-25T00:01:07;97146.77;;;-1.97;71.43
43480;BME280;29067;35.492;-97.520;2023-01-25T00:03:36;97147.72;;;-2.67;73.53
43480;BME280;29067;35.492;-97.520;2023-01-25T00:06:05;97151.34;;;-2.37;72.25
43480;BME280;29067;35.492;-97.520;2023-01-25T00:08:33;97158.61;;;-2.76;73.39
43480;BME280;29067;35.492;-97.520;2023-01-25T00:11:01;97158.96;;;-2.76;73.60
43480;BME280;29067;35.492;-97.520;2023-01-25T00:13:29;97154.27;;;-0.49;69.68
43480;BME280;29067;35.492;-97.520;2023-01-25T00:16:01;97161.09;;;-2.14;71.97
43480;BME280;29067;35.492;-97.520;2023-01-25T00:18:29;97162.24;;;-1.83;71.65
43480;BME280;29067;35.492;-97.520;2023-01-25T00:20:57;97165.13;;;-1.28;70.64
43480;BME280;29067;35.492;-97.520;2023-01-25T00:23:26;97166.68;;;-2.06;71.14
43480;BME280;29067;35.492;-97.520;2023-01-25T00:26:05;97170.81;;;-1.89;70.49
43480;BME280;29067;35.492;-97.520;2023-01-25T00:28:33;97168.03;;;-2.49;70.89
43480;BME280;29067;35.492;-97.520;2023-01-25T00:31:07;97165.18;;;-1.62;70.32
43480;BME280;29067;35.492;-97.520;2023-01-25T00:33:49;97167.65;;;-1.65;68.18
43480;BME280;29067;35.492;-97.520;2023-01-25T00:36:51;97166.20;;;-0.83;68.50
43480;BME280;29067;35.492;-97.520;2023-01-25T00:39:27;97164.29;;;-1.33;68.69
43480;BME280;29067;35.492;-97.520;2023-01-25T00:42:01;97155.59;;;-0.88;67.61
43480;BME280;29067;35.492;-97.520;2023-01-25T00:44:30;97162.90;;;-2.74;71.57
43480;BME280;29067;35.492;-97.520;2023-01-25T00:46:58;97165.59;;;-2.58;72.01
43480;BME280;29067;35.492;-97.520;2023-01-25T00:49:26;97164.59;;;-2.06;69.71
43480;BME280;29067;35.492;-97.520;2023-01-25T00:51:56;97166.07;;;-2.20;70.63
43480;BME280;29067;35.492;-97.520;2023-01-25T00:54:25;97163.70;;;-1.75;69.48
43480;BME280;29067;35.492;-97.520;2023-01-25T00:56:53;97170.14;;;-2.25;70.14
43480;BME280;29067;35.492;-97.520;2023-01-25T00:59:22;97172.31;;;-3.32;73.37
43480;BME280;29067;35.492;-97.520;2023-01-25T01:01:52;97174.53;;;-2.88;73.63
43480;BME280;29067;35.492;-97.520;2023-01-25T01:04:21;97170.10;;;-2.51;74.44
43480;BME280;29067;35.492;-97.520;2023-01-25T01:06:49;97171.37;;;-2.84;75.21
43480;BME280;29067;35.492;-97.520;2023-01-25T01:09:19;97172.62;;;-3.77;76.64
43480;BME280;29067;35.492;-97.520;2023-01-25T01:11:49;97171.86;;;-3.17;75.99
43480;BME280;29067;35.492;-97.520;2023-01-25T01:14:17;97170.73;;;-2.40;74.40
43480;BME280;29067;35.492;-97.520;2023-01-25T01:16:46;97169.74;;;-2.80;74.67
43480;BME280;29067;35.492;-97.520;2023-01-25T01:19:14;97168.94;;;-2.89;74.07
43480;BME280;29067;35.492;-97.520;2023-01-25T01:21:47;97165.75;;;-3.17;74.65
43480;BME280;29067;35.492;-97.520;2023-01-25T01:24:14;97167.37;;;-3.38;75.84
43480;BME280;29067;35.492;-97.520;2023-01-25T01:26:43;97163.93;;;-4.29;82.35
43480;BME280;29067;35.492;-97.520;2023-01-25T01:29:11;97158.86;;;-3.82;79.28
43480;BME280;29067;35.492;-97.520;2023-01-25T01:31:40;97157.85;;;-3.35;79.02
43480;BME280;29067;35.492;-97.520;2023-01-25T01:34:12;97155.88;;;-2.58;78.14
43480;BME280;29067;35.492;-97.520;2023-01-25T01:36:41;97160.34;;;-2.82;78.57
43480;BME280;29067;35.492;-97.520;2023-01-25T01:39:10;97162.86;;;-3.40;79.73
43480;BME280;29067;35.492;-97.520;2023-01-25T01:41:38;97168.13;;;-5.27;86.07
43480;BME280;29067;35.492;-97.520;2023-01-25T01:44:08;97168.37;;;-3.53;83.98
43480;BME280;29067;35.492;-97.520;2023-01-25T01:46:41;97167.74;;;-4.20;83.24
43480;BME280;29067;35.492;-97.520;2023-01-25T01:49:14;97167.03;;;-2.62;78.42
43480;BME280;29067;35.492;-97.520;2023-01-25T01:51:46;97165.14;;;-3.97;80.68
43480;BME280;29067;35.492;-97.520;2023-01-25T01:54:24;97173.58;;;-4.57;82.78
43480;BME280;29067;35.492;-97.520;2023-01-25T01:56:58;97174.33;;;-3.28;80.34
43480;BME280;29067;35.492;-97.520;2023-01-25T01:59:39;97180.72;;;-4.55;83.22
43480;BME280;29067;35.492;-97.520;2023-01-25T02:02:08;97184.22;;;-3.49;84.70
43480;BME280;29067;35.492;-97.520;2023-01-25T02:04:37;97187.26;;;-3.72;81.09
43480;BME280;29067;35.492;-97.520;2023-01-25T02:07:14;97187.27;;;-3.65;79.58
43480;BME280;29067;35.492;-97.520;2023-01-25T02:09:44;97197.90;;;-4.21;85.43
43480;BME280;29067;35.492;-97.520;2023-01-25T02:12:12;97197.15;;;-4.16;80.13
43480;BME280;29067;35.492;-97.520;2023-01-25T02:14:47;97196.83;;;-3.71;80.04
43480;BME280;29067;35.492;-97.520;2023-01-25T02:17:15;97201.30;;;-4.08;79.79
43480;BME280;29067;35.492;-97.520;2023-01-25T02:19:51;97204.08;;;-4.87;84.81
43480;BME280;29067;35.492;-97.520;2023-01-25T02:22:25;97199.84;;;-4.10;81.68
43480;BME280;29067;35.492;-97.520;2023-01-25T02:25:02;97196.31;;;-2.66;75.43
43480;BME280;29067;35.492;-97.520;2023-01-25T02:27:31;97203.06;;;-4.21;80.97
43480;BME280;29067;35.492;-97.520;2023-01-25T02:30:02;97209.13;;;-4.08;82.49
43480;BME280;29067;35.492;-97.520;2023-01-25T02:32:31;97207.29;;;-3.54;77.82
43480;BME280;29067;35.492;-97.520;2023-01-25T02:35:00;97209.29;;;-3.30;79.97
43480;BME280;29067;35.492;-97.520;2023-01-25T02:37:29;97209.46;;;-3.64;80.42
43480;BME280;29067;35.492;-97.520;2023-01-25T02:39:56;97212.06;;;-3.59;78.34
43480;BME280;29067;35.492;-97.520;2023-01-25T02:42:28;97211.87;;;-3.25;77.16
43480;BME280;29067;35.492;-97.520;2023-01-25T02:44:57;97216.04;;;-4.31;80.57
43480;BME280;29067;35.492;-97.520;2023-01-25T02:47:25;97209.15;;;-3.24;77.00
43480;BME280;29067;35.492;-97.520;2023-01-25T02:49:53;97209.07;;;-3.20;78.44
43480;BME280;29067;35.492;-97.520;2023-01-25T02:52:21;97213.15;;;-3.47;79.07
43480;BME280;29067;35.492;-97.520;2023-01-25T02:54:49;97216.59;;;-4.52;82.42
43480;BME280;29067;35.492;-97.520;2023-01-25T02:57:17;97210.00;;;-3.89;82.65
43480;BME280;29067;35.492;-97.520;2023-01-25T02:59:46;97207.20;;;-2.71;75.87
43480;BME280;29067;35.492;-97.520;2023-01-25T03:02:15;97207.76;;;-2.72;75.42
43480;BME280;29067;35.492;-97.520;2023-01-25T03:04:43;97207.42;;;-3.21;77.31
43480;BME280;29067;35.492;-97.520;2023-01-25T03:07:11;97212.06;;;-3.46;78.03
43480;BME280;29067;35.492;-97.520;2023-01-25T03:09:39;97209.67;;;-3.13;76.97
43480;BME280;29067;35.492;-97.520;2023-01-25T03:12:07;97217.72;;;-4.10;79.23
43480;BME280;29067;35.492;-97.520;2023-01-25T03:14:36;97217.90;;;-3.79;79.20
43480;BME280;29067;35.492;-97.520;2023-01-25T03:17:04;97214.73;;;-2.42;74.93
43480;BME280;29067;35.492;-97.520;2023-01-25T03:19:32;97214.17;;;-2.09;73.36
43480;BME280;29067;35.492;-97.520;2023-01-25T03:21:59;97217.31;;;-3.25;76.96
43480;BME280;29067;35.492;-97.520;2023-01-25T03:24:33;97216.20;;;-2.62;75.29
43480;BME280;29067;35.492;-97.520;2023-01-25T03:27:01;97215.18;;;-2.81;74.58
43480;BME280;29067;35.492;-97.520;2023-01-25T03:29:29;97216.46;;;-1.64;70.95
43480;BME280;29067;35.492;-97.520;2023-01-25T03:31:57;97218.81;;;-2.21;71.50
43480;BME280;29067;35.492;-97.520;2023-01-25T03:34:31;97219.60;;;-2.83;72.56
43480;BME280;29067;35.492;-97.520;2023-01-25T03:36:59;97225.69;;;-5.12;77.86
43480;BME280;29067;35.492;-97.520;2023-01-25T03:39:28;97222.75;;;-2.72;74.12
43480;BME280;29067;35.492;-97.520;2023-01-25T03:41:56;97226.18;;;-2.76;74.09
43480;BME280;29067;35.492;-97.520;2023-01-25T03:44:25;97228.37;;;-2.64;72.20
43480;BME280;29067;35.492;-97.520;2023-01-25T03:46:54;97230.34;;;-2.16;71.53
43480;BME280;29067;35.492;-97.520;2023-01-25T03:49:22;97232.28;;;-3.50;74.95
43480;BME280;29067;35.492;-97.520;2023-01-25T03:51:51;97230.84;;;-3.88;78.83
43480;BME280;29067;35.492;-97.520;2023-01-25T03:54:19;97227.23;;;-2.48;72.62
43480;BME280;29067;35.492;-97.520;2023-01-25T03:56:47;97226.01;;;-2.09;73.11
43480;BME280;29067;35.492;-97.520;2023-01-25T03:59:15;97225.17;;;-2.88;72.43
43480;BME280;29067;35.492;-97.520;2023-01-25T04:01:43;97223.67;;;-2.98;72.83
43480;BME280;29067;35.492;-97.520;2023-01-25T04:04:11;97225.65;;;-3.23;75.93
43480;BME280;29067;35.492;-97.520;2023-01-25T04:06:39;97223.31;;;-3.22;74.39
43480;BME280;29067;35.492;-97.520;2023-01-25T04:09:08;97220.65;;;-3.29;77.43
43480;BME280;29067;35.492;-97.520;2023-01-25T04:11:36;97213.38;;;-2.07;73.14
43480;BME280;29067;35.492;-97.520;2023-01-25T04:14:17;97212.45;;;-2.68;73.18
43480;BME280;29067;35.492;-97.520;2023-01-25T04:16:45;97212.66;;;-2.06;69.72
43480;BME280;29067;35.492;-97.520;2023-01-25T04:19:31;97213.72;;;-2.69;71.93
43480;BME280;29067;35.492;-97.520;2023-01-25T04:21:59;97209.75;;;-2.30;71.80
43480;BME280;29067;35.492;-97.520;2023-01-25T04:24:27;97206.61;;;-1.93;70.32
43480;BME280;29067;35.492;-97.520;2023-01-25T04:26:55;97209.63;;;-1.61;69.42
43480;BME280;29067;35.492;-97.520;2023-01-25T04:29:23;97209.61;;;-2.65;72.40
43480;BME280;29067;35.492;-97.520;2023-01-25T04:31:51;97210.42;;;-3.40;72.63
43480;BME280;29067;35.492;-97.520;2023-01-25T04:34:25;97209.21;;;-1.83;69.15
43480;BME280;29067;35.492;-97.520;2023-01-25T04:36:54;97210.39;;;-2.11;69.02
43480;BME280;29067;35.492;-97.520;2023-01-25T04:39:22;97212.57;;;-1.44;66.75
43480;BME280;29067;35.492;-97.520;2023-01-25T04:41:51;97212.53;;;-2.12;68.98
43480;BME280;29067;35.492;-97.520;2023-01-25T04:44:19;97210.38;;;-1.13;66.79
43480;BME280;29067;35.492;-97.520;2023-01-25T04:46:47;97213.46;;;-2.50;67.02
43480;BME280;29067;35.492;-97.520;2023-01-25T04:49:15;97210.83;;;-2.89;68.42
43480;BME280;29067;35.492;-97.520;2023-01-25T04:51:44;97212.34;;;-2.88;71.22
43480;BME280;29067;35.492;-97.520;2023-01-25T04:54:12;97210.19;;;-2.86;70.75
43480;BME280;29067;35.492;-97.520;2023-01-25T04:56:40;97213.69;;;-3.21;75.36
43480;BME280;29067;35.492;-97.520;2023-01-25T04:59:09;97212.71;;;-2.61;72.60
43480;BME280;29067;35.492;-97.520;2023-01-25T05:01:37;97211.30;;;-3.41;73.74
43480;BME280;29067;35.492;-97.520;2023-01-25T05:04:06;97212.97;;;-1.32;70.61
43480;BME280;29067;35.492;-97.520;2023-01-25T05:06:34;97211.73;;;-1.26;70.34
43480;BME280;29067;35.492;-97.520;2023-01-25T05:09:03;97210.30;;;-3.96;74.82
43480;BME280;29067;35.492;-97.520;2023-01-25T05:11:33;97205.15;;;-2.21;73.25
43480;BME280;29067;35.492;-97.520;2023-01-25T05:14:01;97205.91;;;-3.02;74.96
43480;BME280;29067;35.492;-97.520;2023-01-25T05:16:29;97209.53;;;-3.61;76.54
43480;BME280;29067;35.492;-97.520;2023-01-25T05:18:57;97206.82;;;-3.46;77.03
43480;BME280;29067;35.492;-97.520;2023-01-25T05:21:25;97206.88;;;-3.76;77.60
43480;BME280;29067;35.492;-97.520;2023-01-25T05:23:54;97208.06;;;-4.10;77.96
43480;BME280;29067;35.492;-97.520;2023-01-25T05:26:21;97203.39;;;-4.22;80.69
43480;BME280;29067;35.492;-97.520;2023-01-25T05:28:55;97200.25;;;-4.01;81.59
43480;BME280;29067;35.492;-97.520;2023-01-25T05:31:28;97193.07;;;-2.47;76.15
43480;BME280;29067;35.492;-97.520;2023-01-25T05:33:56;97192.98;;;-3.07;79.68
43480;BME280;29067;35.492;-97.520;2023-01-25T05:36:29;97191.35;;;-3.96;81.92
43480;BME280;29067;35.492;-97.520;2023-01-25T05:39:03;97193.77;;;-3.88;84.81
43480;BME280;29067;35.492;-97.520;2023-01-25T05:41:32;97186.44;;;-4.60;86.86
43480;BME280;29067;35.492;-97.520;2023-01-25T05:44:00;97179.73;;;-3.28;82.47
43480;BME280;29067;35.492;-97.520;2023-01-25T05:46:28;97179.42;;;-3.65;82.17
43480;BME280;29067;35.492;-97.520;2023-01-25T05:48:56;97176.10;;;-3.69;84.03
43480;BME280;29067;35.492;-97.520;2023-01-25T05:51:25;97171.18;;;-3.63;82.84
43480;BME280;29067;35.492;-97.520;2023-01-25T05:53:54;97168.62;;;-4.22;84.52
43480;BME280;29067;35.492;-97.520;2023-01-25T05:56:22;97167.63;;;-4.45;86.50
43480;BME280;29067;35.492;-97.520;2023-01-25T05:58:53;97160.84;;;-3.45;81.76
43480;BME280;29067;35.492;-97.520;2023-01-25T06:01:22;97155.81;;;-4.41;81.39
43480;BME280;29067;35.492;-97.520;2023-01-25T06:03:50;97149.64;;;-3.89;84.29
43480;BME280;29067;35.492;-97.520;2023-01-25T06:06:19;97143.14;;;-4.16;81.39
43480;BME280;29067;35.492;-97.520;2023-01-25T06:08:48;97136.40;;;-3.66;79.34
43480;BME280;29067;35.492;-97.520;2023-01-25T06:11:18;97134.05;;;-4.10;81.03
43480;BME280;29067;35.492;-97.520;2023-01-25T06:13:47;97128.92;;;-4.52;82.01
43480;BME280;29067;35.492;-97.520;2023-01-25T06:16:16;97121.94;;;-3.83;80.00
43480;BME280;29067;35.492;-97.520;2023-01-25T06:18:45;97112.78;;;-3.58;79.29
43480;BME280;29067;35.492;-97.520;2023-01-25T06:21:14;97114.35;;;-4.67;84.95
43480;BME280;29067;35.492;-97.520;2023-01-25T06:23:42;97113.93;;;-5.72;92.37
43480;BME280;29067;35.492;-97.520;2023-01-25T06:26:13;97108.12;;;-3.77;88.25
43480;BME280;29067;35.492;-97.520;2023-01-25T06:28:41;97106.73;;;-3.85;85.53
43480;BME280;29067;35.492;-97.520;2023-01-25T06:31:11;97098.90;;;-3.70;85.09
43480;BME280;29067;35.492;-97.520;2023-01-25T06:33:41;97099.35;;;-3.44;82.68
43480;BME280;29067;35.492;-97.520;2023-01-25T06:36:12;97103.53;;;-4.98;88.07
43480;BME280;29067;35.492;-97.520;2023-01-25T06:38:40;97102.89;;;-5.21;90.97
43480;BME280;29067;35.492;-97.520;2023-01-25T06:41:10;97098.41;;;-5.32;98.72
43480;BME280;29067;35.492;-97.520;2023-01-25T06:43:39;97094.90;;;-5.61;97.24
43480;BME280;29067;35.492;-97.520;2023-01-25T06:46:09;97092.55;;;-5.57;98.56
43480;BME280;29067;35.492;-97.520;2023-01-25T06:48:37;97088.83;;;-5.68;98.21
43480;BME280;29067;35.492;-97.520;2023-01-25T06:51:08;97086.44;;;-5.69;100.00
43480;BME280;29067;35.492;-97.520;2023-01-25T06:53:38;97086.85;;;-5.38;100.00
43480;BME280;29067;35.492;-97.520;2023-01-25T06:56:08;97087.20;;;-4.87;100.00
43480;BME280;29067;35.492;-97.520;2023-01-25T06:58:37;97088.05;;;-4.02;93.11
43480;BME280;29067;35.492;-97.520;2023-01-25T07:01:10;97086.61;;;-3.64;90.55
43480;BME280;29067;35.492;-97.520;2023-01-25T07:03:39;97089.65;;;-3.58;88.77
43480;BME280;29067;35.492;-97.520;2023-01-25T07:06:09;97093.69;;;-4.84;91.53
43480;BME280;29067;35.492;-97.520;2023-01-25T07:08:38;97089.86;;;-4.82;97.92
43480;BME280;29067;35.492;-97.520;2023-01-25T07:11:09;97084.30;;;-4.35;95.77
43480;BME280;29067;35.492;-97.520;2023-01-25T07:13:37;97084.74;;;-5.48;99.33
43480;BME280;29067;35.492;-97.520;2023-01-25T07:16:09;97080.76;;;-4.44;98.29
43480;BME280;29067;35.492;-97.520;2023-01-25T07:18:38;97086.94;;;-5.14;100.00
43480;BME280;29067;35.492;-97.520;2023-01-25T07:21:09;97092.06;;;-4.12;100.00
43480;BME280;29067;35.492;-97.520;2023-01-25T07:23:37;97093.26;;;-3.43;93.43
43480;BME280;29067;35.492;-97.520;2023-01-25T07:26:09;97095.71;;;-3.68;90.62
43480;BME280;29067;35.492;-97.520;2023-01-25T07:28:40;97098.08;;;-4.48;91.35
43480;BME280;29067;35.492;-97.520;2023-01-25T07:31:15;97102.89;;;-4.16;88.81
43480;BME280;29067;35.492;-97.520;2023-01-25T07:33:44;97103.25;;;-3.26;84.93
43480;BME280;29067;35.492;-97.520;2023-01-25T07:36:14;97101.96;;;-3.61;87.67
43480;BME280;29067;35.492;-97.520;2023-01-25T07:38:42;97100.15;;;-4.55;93.07
43480;BME280;29067;35.492;-97.520;2023-01-25T07:41:10;97096.53;;;-3.48;88.20
43480;BME280;29067;35.492;-97.520;2023-01-25T07:43:38;97096.37;;;-2.88;83.29
43480;BME280;29067;35.492;-97.520;2023-01-25T07:46:08;97096.15;;;-2.44;78.02
43480;BME280;29067;35.492;-97.520;2023-01-25T07:48:36;97093.84;;;-2.36;77.17
43480;BME280;29067;35.492;-97.520;2023-01-25T07:51:06;97098.76;;;-4.98;88.35
43480;BME280;29067;35.492;-97.520;2023-01-25T07:53:34;97099.75;;;-4.34;90.11
43480;BME280;29067;35.492;-97.520;2023-01-25T07:56:03;97101.34;;;-4.05;89.07
43480;BME280;29067;35.492;-97.520;2023-01-25T07:58:31;97094.73;;;-3.93;86.29
43480;BME280;29067;35.492;-97.520;2023-01-25T08:01:06;97095.45;;;-3.34;86.06
43480;BME280;29067;35.492;-97.520;2023-01-25T08:03:34;97097.72;;;-4.16;88.14
43480;BME280;29067;35.492;-97.520;2023-01-25T08:06:03;97099.37;;;-4.35;91.02
43480;BME280;29067;35.492;-97.520;2023-01-25T08:08:31;97097.10;;;-3.94;88.66
43480;BME280;29067;35.492;-97.520;2023-01-25T08:11:00;97090.49;;;-3.63;81.74
43480;BME280;29067;35.492;-97.520;2023-01-25T08:13:34;97091.82;;;-3.33;83.67
43480;BME280;29067;35.492;-97.520;2023-01-25T08:16:02;97091.71;;;-3.93;83.75
43480;BME280;29067;35.492;-97.520;2023-01-25T08:18:31;97089.32;;;-4.39;83.67
43480;BME280;29067;35.492;-97.520;2023-01-25T08:20:59;97092.39;;;-6.08;93.23
43480;BME280;29067;35.492;-97.520;2023-01-25T08:23:27;97086.04;;;-5.25;96.40
43480;BME280;29067;35.492;-97.520;2023-01-25T08:25:58;97086.37;;;-5.21;95.47
43480;BME280;29067;35.492;-97.520;2023-01-25T08:28:28;97082.68;;;-5.49;96.97
43480;BME280;29067;35.492;-97.520;2023-01-25T08:31:04;97080.75;;;-5.01;97.48
43480;BME280;29067;35.492;-97.520;2023-01-25T08:33:33;97076.27;;;-4.42;94.03
43480;BME280;29067;35.492;-97.520;2023-01-25T08:36:02;97073.49;;;-3.56;92.26
43480;BME280;29067;35.492;-97.520;2023-01-25T08:38:31;97083.58;;;-4.36;89.66
43480;BME280;29067;35.492;-97.520;2023-01-25T08:41:04;97092.14;;;-5.32;100.00
43480;BME280;29067;35.492;-97.520;2023-01-25T08:43:33;97094.13;;;-4.54;98.11
43480;BME280;29067;35.492;-97.520;2023-01-25T08:46:01;97091.26;;;-3.55;91.30
43480;BME280;29067;35.492;-97.520;2023-01-25T08:48:30;97100.05;;;-4.80;100.00
43480;BME280;29067;35.492;-97.520;2023-01-25T08:50:58;97100.05;;;-4.39;100.00
43480;BME280;29067;35.492;-97.520;2023-01-25T08:53:27;97101.00;;;-3.30;91.93
43480;BME280;29067;35.492;-97.520;2023-01-25T08:55:55;97105.56;;;-3.38;87.74
43480;BME280;29067;35.492;-97.520;2023-01-25T08:58:23;97106.94;;;-3.32;88.22
43480;BME280;29067;35.492;-97.520;2023-01-25T09:00:52;97109.82;;;-3.31;89.17
43480;BME280;29067;35.492;-97.520;2023-01-25T09:03:20;97110.62;;;-2.34;83.44
43480;BME280;29067;35.492;-97.520;2023-01-25T09:05:49;97115.99;;;-4.44;88.56
43480;BME280;29067;35.492;-97.520;2023-01-25T09:08:17;97119.43;;;-4.73;96.79
43480;BME280;29067;35.492;-97.520;2023-01-25T09:10:45;97119.82;;;-3.85;89.45
43480;BME280;29067;35.492;-97.520;2023-01-25T09:13:14;97123.31;;;-5.34;97.87
43480;BME280;29067;35.492;-97.520;2023-01-25T09:15:42;97124.98;;;-4.92;99.17
43480;BME280;29067;35.492;-97.520;2023-01-25T09:18:10;97120.64;;;-4.62;100.00
43480;BME280;29067;35.492;-97.520;2023-01-25T09:20:38;97121.46;;;-3.60;92.44
43480;BME280;29067;35.492;-97.520;2023-01-25T09:23:07;97122.33;;;-3.93;96.00
43480;BME280;29067;35.492;-97.520;2023-01-25T09:25:35;97125.31;;;-5.75;100.00
43480;BME280;29067;35.492;-97.520;2023-01-25T09:28:03;97127.05;;;-4.38;93.97
43480;BME280;29067;35.492;-97.520;2023-01-25T09:30:31;97121.80;;;-3.16;88.62
43480;BME280;29067;35.492;-97.520;2023-01-25T09:32:59;97125.93;;;-3.55;89.57
43480;BME280;29067;35.492;-97.520;2023-01-25T09:35:27;97128.97;;;-4.65;89.62
43480;BME280;29067;35.492;-97.520;2023-01-25T09:37:55;97127.64;;;-4.71;90.51
43480;BME280;29067;35.492;-97.520;2023-01-25T09:40:32;97133.38;;;-6.25;100.00
43480;BME280;29067;35.492;-97.520;2023-01-25T09:43:06;97130.06;;;-4.98;94.02
43480;BME280;29067;35.492;-97.520;2023-01-25T09:45:40;97132.61;;;-4.36;90.67
43480;BME280;29067;35.492;-97.520;2023-01-25T09:48:16;97135.20;;;-4.42;92.52
43480;BME280;29067;35.492;-97.520;2023-01-25T09:51:02;97135.04;;;-4.19;86.53
43480;BME280;29067;35.492;-97.520;2023-01-25T09:53:36;97135.65;;;-5.27;95.88
43480;BME280;29067;35.492;-97.520;2023-01-25T09:56:11;97133.43;;;-4.83;93.30
43480;BME280;29067;35.492;-97.520;2023-01-25T09:58:45;97136.06;;;-5.20;99.88
43480;BME280;29067;35.492;-97.520;2023-01-25T10:01:20;97136.60;;;-4.13;91.11
43480;BME280;29067;35.492;-97.520;2023-01-25T10:03:54;97139.68;;;-3.32;86.46
43480;BME280;29067;35.492;-97.520;2023-01-25T10:06:32;97150.55;;;-4.14;91.05
43480;BME280;29067;35.492;-97.520;2023-01-25T10:09:12;97152.22;;;-4.71;93.43
43480;BME280;29067;35.492;-97.520;2023-01-25T10:11:47;97150.23;;;-4.11;89.75
43480;BME280;29067;35.492;-97.520;2023-01-25T10:14:17;97150.55;;;-4.05;88.13
43480;BME280;29067;35.492;-97.520;2023-01-25T10:17:00;97157.06;;;-5.14;93.13
43480;BME280;29067;35.492;-97.520;2023-01-25T10:19:47;97158.61;;;-4.14;89.58
43480;BME280;29067;35.492;-97.520;2023-01-25T10:22:20;97161.83;;;-4.78;91.49
43480;BME280;29067;35.492;-97.520;2023-01-25T10:25:00;97161.00;;;-4.07;95.17
43480;BME280;29067;35.492;-97.520;2023-01-25T10:27:39;97164.80;;;-5.99;100.00
43480;BME280;29067;35.492;-97.520;2023-01-25T10:30:24;97158.43;;;-5.21;99.54
43480;BME280;29067;35.492;-97.520;2023-01-25T10:32:57;97158.38;;;-3.72;88.94
43480;BME280;29067;35.492;-97.520;2023-01-25T10:35:30;97159.49;;;-3.95;90.23
43480;BME280;29067;35.492;-97.520;2023-01-25T10:38:08;97163.98;;;-4.54;92.06
43480;BME280;29067;35.492;-97.520;2023-01-25T10:40:42;97165.33;;;-5.68;96.86
43480;BME280;29067;35.492;-97.520;2023-01-25T10:43:17;97169.30;;;-4.86;95.31
43480;BME280;29067;35.492;-97.520;2023-01-25T10:45:45;97169.66;;;-4.19;89.74
43480;BME280;29067;35.492;-97.520;2023-01-25T10:48:19;97176.07;;;-4.25;89.61
43480;BME280;29067;35.492;-97.520;2023-01-25T10:50:50;97182.42;;;-5.38;93.72
43480;BME280;29067;35.492;-97.520;2023-01-25T10:53:24;97184.07;;;-4.97;95.73
43480;BME280;29067;35.492;-97.520;2023-01-25T10:56:01;97184.80;;;-4.69;100.00
43480;BME280;29067;35.492;-97.520;2023-01-25T10:58:33;97186.72;;;-5.16;92.77
43480;BME280;29067;35.492;-97.520;2023-01-25T11:01:01;97188.43;;;-5.00;92.55
43480;BME280;29067;35.492;-97.520;2023-01-25T11:03:36;97189.95;;;-4.07;90.05
43480;BME280;29067;35.492;-97.520;2023-01-25T11:06:06;97190.44;;;-5.49;94.10
43480;BME280;29067;35.492;-97.520;2023-01-25T11:08:37;97197.73;;;-5.37;100.00
43480;BME280;29067;35.492;-97.520;2023-01-25T11:11:23;97196.74;;;-5.77;100.00
43480;BME280;29067;35.492;-97.520;2023-01-25T11:13:53;97189.32;;;-4.18;96.31
43480;BME280;29067;35.492;-97.520;2023-01-25T11:16:30;97191.68;;;-5.75;100.00
43480;BME280;29067;35.492;-97.520;2023-01-25T11:19:00;97206.83;;;-5.74;100.00
43480;BME280;29067;35.492;-97.520;2023-01-25T11:21:29;97203.31;;;-4.89;99.68
43480;BME280;29067;35.492;-97.520;2023-01-25T11:24:01;97206.64;;;-5.15;94.51
43480;BME280;29067;35.492;-97.520;2023-01-25T11:26:30;97204.37;;;-5.48;95.16
43480;BME280;29067;35.492;-97.520;2023-01-25T11:29:11;97204.95;;;-4.62;93.46
43480;BME280;29067;35.492;-97.520;2023-01-25T11:31:41;97207.97;;;-4.70;89.68
43480;BME280;29067;35.492;-97.520;2023-01-25T11:34:12;97214.02;;;-4.65;91.01
43480;BME280;29067;35.492;-97.520;2023-01-25T11:36:50;97216.89;;;-4.51;87.97
43480;BME280;29067;35.492;-97.520;2023-01-25T11:39:35;97222.81;;;-4.79;90.14
43480;BME280;29067;35.492;-97.520;2023-01-25T11:42:25;97225.89;;;-4.53;87.50
43480;BME280;29067;35.492;-97.520;2023-01-25T11:45:04;97227.26;;;-3.38;81.49
43480;BME280;29067;35.492;-97.520;2023-01-25T11:47:53;97232.31;;;-4.61;84.75
43480;BME280;29067;35.492;-97.520;2023-01-25T11:50:29;97232.10;;;-4.97;85.05
43480;BME280;29067;35.492;-97.520;2023-01-25T11:53:24;97236.93;;;-4.55;84.70
43480;BME280;29067;35.492;-97.520;2023-01-25T11:56:03;97238.81;;;-4.61;82.52
43480;BME280;29067;35.492;-97.520;2023-01-25T11:58:47;97237.26;;;-4.47;80.95
43480;BME280;29067;35.492;-97.520;2023-01-25T12:03:55;97241.39;;;-5.06;85.27
43480;BME280;29067;35.492;-97.520;2023-01-25T12:06:38;97241.90;;;-4.91;86.72
43480;BME280;29067;35.492;-97.520;2023-01-25T12:09:24;97242.89;;;-4.73;87.20
43480;BME280;29067;35.492;-97.520;2023-01-25T12:12:08;97245.40;;;-4.93;86.87
43480;BME280;29067;35.492;-97.520;2023-01-25T12:14:53;97250.90;;;-5.01;88.90
43480;BME280;29067;35.492;-97.520;2023-01-25T12:17:40;97245.55;;;-3.90;84.32
43480;BME280;29067;35.492;-97.520;2023-01-25T12:21:01;97244.81;;;-4.25;86.12
43480;BME280;29067;35.492;-97.520;2023-01-25T12:23:42;97248.33;;;-4.79;86.02
43480;BME280;29067;35.492;-97.520;2023-01-25T12:26:23;97248.52;;;-4.24;83.62
43480;BME280;29067;35.492;-97.520;2023-01-25T12:29:01;97253.74;;;-3.13;79.06
43480;BME280;29067;35.492;-97.520;2023-01-25T12:31:38;97259.80;;;-4.46;82.74
43480;BME280;29067;35.492;-97.520;2023-01-25T12:34:13;97262.02;;;-5.02;86.81
43480;BME280;29067;35.492;-97.520;2023-01-25T12:36:45;97269.77;;;-5.69;90.90
43480;BME280;29067;35.492;-97.520;2023-01-25T12:39:15;97263.38;;;-3.96;83.32
43480;BME280;29067;35.492;-97.520;2023-01-25T12:41:47;97264.97;;;-3.89;80.60
43480;BME280;29067;35.492;-97.520;2023-01-25T12:41:52;97264.15;;;-3.52;80.31
43480;BME280;29067;35.492;-97.520;2023-01-25T12:44:32;97264.88;;;-4.07;79.41
43480;BME280;29067;35.492;-97.520;2023-01-25T12:47:06;97268.19;;;-4.70;81.90
43480;BME280;29067;35.492;-97.520;2023-01-25T12:49:41;97264.61;;;-3.77;78.75
43480;BME280;29067;35.492;-97.520;2023-01-25T12:52:18;97266.58;;;-4.50;78.60
43480;BME280;29067;35.492;-97.520;2023-01-25T12:54:49;97264.41;;;-2.83;74.25
43480;BME280;29067;35.492;-97.520;2023-01-25T12:57:23;97263.57;;;-3.58;75.69
43480;BME280;29067;35.492;-97.520;2023-01-25T12:59:59;97262.16;;;-4.36;77.26
43480;BME280;29067;35.492;-97.520;2023-01-25T13:02:51;97261.97;;;-5.04;77.07